createdAt,value
2018-12-01T00:01:13.740Z,3.10
2018-12-01T00:03:19.074Z,3.63
2018-12-01T00:05:24.371Z,3.40
2018-12-01T00:07:29.973Z,3.03
2018-12-01T00:09:35.013Z,3.70
2018-12-01T00:11:41.897Z,4.07
2018-12-01T00:13:47.029Z,3.00
2018-12-01T00:15:52.938Z,2.67
2018-12-01T00:17:59.311Z,2.80
2018-12-01T00:20:05.014Z,2.80
2018-12-01T00:22:10.085Z,3.10
2018-12-01T00:24:15.202Z,3.30
2018-12-01T00:26:21.378Z,3.10
2018-12-01T00:28:26.392Z,4.30
2018-12-01T00:30:31.452Z,3.70
2018-12-01T00:32:36.611Z,3.17
2018-12-01T00:34:42.547Z,3.40
2018-12-01T00:36:48.190Z,2.80
2018-12-01T00:38:53.571Z,3.60
2018-12-01T00:40:58.556Z,4.03
2018-12-01T00:43:03.568Z,3.43
2018-12-01T00:45:14.338Z,3.70
2018-12-01T00:47:19.275Z,3.27
2018-12-01T00:49:24.373Z,3.03
2018-12-01T00:51:30.561Z,3.10
2018-12-01T00:53:37.717Z,3.17
2018-12-01T00:55:42.668Z,3.23
2018-12-01T00:57:47.608Z,3.70
2018-12-01T00:59:52.505Z,3.30
2018-12-01T01:01:57.549Z,2.73
2018-12-01T01:04:03.349Z,2.80
2018-12-01T01:06:08.346Z,2.97
2018-12-01T01:08:14.387Z,2.50
2018-12-01T01:10:19.660Z,3.40
2018-12-01T01:12:24.746Z,3.20
2018-12-01T01:14:29.946Z,2.07
2018-12-01T01:16:34.810Z,3.10
2018-12-01T01:18:39.880Z,2.33
2018-12-01T01:20:45.107Z,2.30
2018-12-01T01:22:51.639Z,2.90
2018-12-01T01:24:56.981Z,2.23
2018-12-01T01:27:02.065Z,3.20
2018-12-01T01:29:07.819Z,2.60
2018-12-01T01:31:12.943Z,2.10
2018-12-01T01:33:32.396Z,2.73
2018-12-01T01:35:37.315Z,2.70
2018-12-01T01:37:42.699Z,2.40
2018-12-01T01:39:48.108Z,2.20
2018-12-01T01:41:53.104Z,3.00
2018-12-01T01:44:00.130Z,2.30
2018-12-01T01:46:05.354Z,2.20
2018-12-01T01:48:10.466Z,2.10
2018-12-01T01:50:20.866Z,2.50
2018-12-01T01:52:25.883Z,2.50
2018-12-01T01:54:31.070Z,2.30
2018-12-01T01:56:36.188Z,2.87
2018-12-01T01:58:41.120Z,3.10
2018-12-01T02:00:46.344Z,2.87
2018-12-01T02:02:53.096Z,2.83
2018-12-01T02:04:58.078Z,2.40
2018-12-01T02:07:03.078Z,3.13
2018-12-01T02:09:09.385Z,2.67
2018-12-01T02:11:14.308Z,1.80
2018-12-01T02:13:19.350Z,2.60
2018-12-01T02:15:24.466Z,2.80
2018-12-01T02:17:29.502Z,2.80
2018-12-01T02:19:34.415Z,3.60
2018-12-01T02:21:39.345Z,2.90
2018-12-01T02:23:44.433Z,2.90
2018-12-01T02:28:01.252Z,3.40
2018-12-01T02:30:09.841Z,2.17
2018-12-01T02:32:15.577Z,2.63
2018-12-01T02:34:20.506Z,2.90
2018-12-01T02:36:25.630Z,3.00
2018-12-01T02:38:30.584Z,2.27
2018-12-01T02:40:35.696Z,2.30
2018-12-01T02:42:41.056Z,2.80
2018-12-01T02:45:11.398Z,2.20
2018-12-01T02:47:18.743Z,2.23
2018-12-01T02:49:23.863Z,2.83
2018-12-01T02:51:28.801Z,3.23
2018-12-01T02:53:33.885Z,2.57
2018-12-01T02:55:38.834Z,2.33
2018-12-01T02:57:43.711Z,4.30
2018-12-01T02:59:48.663Z,3.07
2018-12-01T03:01:53.855Z,2.33
2018-12-01T03:03:58.983Z,2.73
2018-12-01T03:06:04.452Z,2.83
2018-12-01T03:08:09.560Z,2.87
2018-12-01T03:10:17.449Z,2.30
2018-12-01T03:12:22.401Z,3.37
2018-12-01T03:14:27.692Z,2.27
2018-12-01T03:16:32.836Z,2.97
2018-12-01T03:18:37.864Z,2.57
2018-12-01T03:20:42.966Z,2.70
2018-12-01T03:22:48.006Z,2.40
2018-12-01T03:24:52.885Z,2.77
2018-12-01T03:26:58.002Z,3.43
2018-12-01T03:29:02.956Z,3.17
2018-12-01T03:31:08.316Z,2.83
2018-12-01T03:33:13.290Z,2.97
2018-12-01T03:35:18.689Z,2.40
2018-12-01T03:37:23.787Z,2.70
2018-12-01T03:39:29.743Z,2.10
2018-12-01T03:41:34.983Z,2.53
2018-12-01T03:43:40.086Z,2.07
2018-12-01T03:45:47.131Z,2.30
2018-12-01T03:47:52.013Z,2.40
2018-12-01T03:49:59.242Z,2.20
2018-12-01T03:52:04.995Z,2.30
2018-12-01T03:54:10.370Z,2.17
2018-12-01T03:56:15.349Z,2.03
2018-12-01T03:58:21.352Z,1.20
2018-12-01T04:00:27.542Z,1.90
2018-12-01T04:02:33.759Z,2.50
2018-12-01T04:04:38.879Z,1.60
2018-12-01T04:06:44.002Z,1.87
2018-12-01T04:08:48.865Z,2.23
2018-12-01T04:10:54.120Z,2.67
2018-12-01T04:12:59.443Z,2.10
2018-12-01T04:15:04.549Z,2.20
2018-12-01T04:17:09.088Z,2.13
2018-12-01T04:19:13.942Z,2.73
2018-12-01T04:21:19.602Z,3.23
2018-12-01T04:23:24.649Z,2.17
2018-12-01T04:25:29.560Z,1.90
2018-12-01T04:27:34.423Z,2.80
2018-12-01T04:29:39.528Z,1.93
2018-12-01T04:31:45.381Z,1.47
2018-12-01T04:33:51.618Z,1.60
2018-12-01T04:35:56.536Z,1.60
2018-12-01T04:38:01.464Z,2.07
2018-12-01T04:40:09.007Z,1.83
2018-12-01T04:42:15.106Z,1.90
2018-12-01T04:44:20.235Z,1.73
2018-12-01T04:46:26.742Z,2.03
2018-12-01T04:48:31.665Z,1.70
2018-12-01T04:50:36.975Z,2.00
2018-12-01T04:52:42.613Z,1.80
2018-12-01T04:54:48.425Z,2.13
2018-12-01T04:56:53.287Z,2.07
2018-12-01T04:58:58.120Z,2.20
2018-12-01T05:01:02.934Z,1.63
2018-12-01T05:03:08.477Z,4.40
2018-12-01T05:05:23.154Z,1.80
2018-12-01T05:07:28.678Z,1.67
2018-12-01T05:09:33.554Z,1.87
2018-12-01T05:11:39.237Z,2.50
2018-12-01T05:13:44.117Z,1.60
2018-12-01T05:15:48.956Z,1.53
2018-12-01T05:17:53.714Z,1.83
2018-12-01T05:19:58.909Z,1.50
2018-12-01T05:22:03.700Z,1.70
2018-12-01T05:24:10.022Z,2.00
2018-12-01T05:26:14.883Z,1.90
2018-12-01T05:28:20.711Z,1.87
2018-12-01T05:30:25.723Z,1.60
2018-12-01T05:32:30.581Z,1.80
2018-12-01T05:34:35.919Z,2.77
2018-12-01T05:36:41.333Z,1.70
2018-12-01T05:38:46.252Z,2.20
2018-12-01T05:40:51.787Z,1.63
2018-12-01T05:42:56.687Z,1.80
2018-12-01T05:45:01.422Z,2.13
2018-12-01T05:47:07.200Z,1.60
2018-12-01T05:49:12.639Z,2.33
2018-12-01T05:51:18.552Z,1.57
2018-12-01T05:53:38.098Z,2.00
2018-12-01T05:55:43.720Z,1.70
2018-12-01T05:57:49.901Z,2.23
2018-12-01T05:59:54.998Z,2.03
2018-12-01T06:02:00.904Z,1.90
2018-12-01T06:04:06.441Z,2.43
2018-12-01T06:06:11.633Z,2.43
2018-12-01T06:08:16.445Z,1.80
2018-12-01T06:10:22.781Z,1.83
2018-12-01T06:12:27.732Z,1.70
2018-12-01T06:14:33.255Z,2.07
2018-12-01T06:16:38.074Z,1.50
2018-12-01T06:18:43.011Z,1.93
2018-12-01T06:20:47.831Z,1.80
2018-12-01T06:22:52.729Z,1.87
2018-12-01T06:24:57.522Z,1.80
2018-12-01T06:27:02.254Z,1.93
2018-12-01T06:29:07.352Z,2.67
2018-12-01T06:31:12.098Z,2.37
2018-12-01T06:33:17.027Z,2.37
2018-12-01T06:35:22.052Z,2.17
2018-12-01T06:37:27.171Z,2.47
2018-12-01T06:39:31.921Z,2.27
2018-12-01T06:41:36.757Z,2.90
2018-12-01T06:43:41.747Z,2.13
2018-12-01T06:45:46.608Z,2.43
2018-12-01T06:47:51.436Z,2.37
2018-12-01T06:49:56.248Z,2.73
2018-12-01T06:52:01.061Z,2.07
2018-12-01T06:54:05.980Z,2.00
2018-12-01T06:56:10.883Z,1.80
2018-12-01T06:58:15.981Z,2.77
2018-12-01T07:00:23.745Z,2.50
2018-12-01T07:02:28.688Z,2.07
2018-12-01T07:04:33.516Z,2.63
2018-12-01T07:06:38.336Z,2.37
2018-12-01T07:08:43.654Z,1.97
2018-12-01T07:10:48.437Z,2.30
2018-12-01T07:12:57.182Z,2.70
2018-12-01T07:15:02.016Z,1.90
2018-12-01T07:17:07.220Z,2.53
2018-12-01T07:19:19.583Z,2.20
2018-12-01T07:21:24.384Z,2.50
2018-12-01T07:23:29.386Z,2.53
2018-12-01T07:25:34.108Z,2.70
2018-12-01T07:27:39.302Z,3.53
2018-12-01T07:29:44.682Z,2.73
2018-12-01T07:31:49.534Z,3.00
2018-12-01T07:33:54.287Z,3.40
2018-12-01T07:35:59.149Z,2.97
2018-12-01T07:38:04.000Z,3.10
2018-12-01T07:40:13.086Z,2.97
2018-12-01T07:42:19.148Z,3.37
2018-12-01T07:44:24.247Z,3.20
2018-12-01T07:46:29.154Z,3.10
2018-12-01T07:48:34.377Z,2.80
2018-12-01T07:50:40.130Z,3.50
2018-12-01T07:52:50.030Z,3.47
2018-12-01T07:54:54.890Z,3.27
2018-12-01T07:56:59.722Z,2.80
2018-12-01T07:59:04.628Z,3.67
2018-12-01T08:01:09.521Z,3.13
2018-12-01T08:03:14.599Z,3.87
2018-12-01T08:05:19.543Z,3.83
2018-12-01T08:07:24.570Z,3.60
2018-12-01T08:09:30.161Z,3.30
2018-12-01T08:11:35.261Z,3.47
2018-12-01T08:13:40.018Z,3.30
2018-12-01T08:15:45.085Z,3.80
2018-12-01T08:17:50.237Z,3.57
2018-12-01T08:19:56.401Z,3.80
2018-12-01T08:22:01.617Z,3.97
2018-12-01T08:24:08.642Z,4.33
2018-12-01T08:26:13.617Z,3.57
2018-12-01T08:28:24.306Z,3.60
2018-12-01T08:30:30.969Z,3.93
2018-12-01T08:32:35.751Z,3.30
2018-12-01T08:37:19.611Z,4.50
2018-12-01T08:39:24.438Z,3.93
2018-12-01T08:41:29.438Z,3.07
2018-12-01T08:43:34.787Z,3.47
2018-12-01T08:45:39.976Z,3.50
2018-12-01T08:47:45.176Z,3.67
2018-12-01T08:49:50.314Z,3.80
2018-12-01T08:51:56.233Z,3.70
2018-12-01T08:54:01.291Z,3.70
2018-12-01T08:56:07.494Z,3.07
2018-12-01T08:58:12.640Z,3.73
2018-12-01T09:00:21.012Z,3.40
2018-12-01T09:02:26.426Z,3.13
2018-12-01T09:04:31.826Z,4.20
2018-12-01T09:06:37.531Z,3.20
2018-12-01T09:08:42.560Z,2.97
2018-12-01T09:10:47.772Z,3.67
2018-12-01T09:12:53.739Z,3.00
2018-12-01T09:14:58.964Z,3.50
2018-12-01T09:17:04.424Z,2.90
2018-12-01T09:19:09.285Z,3.17
2018-12-01T09:21:14.756Z,4.10
2018-12-01T09:23:20.182Z,3.37
2018-12-01T09:25:25.289Z,2.93
2018-12-01T09:27:31.782Z,2.80
2018-12-01T09:29:37.544Z,3.23
2018-12-01T09:31:42.475Z,3.90
2018-12-01T09:33:47.445Z,3.30
2018-12-01T09:35:52.877Z,3.50
2018-12-01T09:37:59.049Z,3.33
2018-12-01T09:40:04.287Z,3.30
2018-12-01T09:42:16.459Z,2.70
2018-12-01T09:44:21.371Z,3.73
2018-12-01T09:46:26.560Z,4.20
2018-12-01T09:48:32.395Z,3.70
2018-12-01T09:50:37.659Z,3.13
2018-12-01T09:52:44.918Z,4.43
2018-12-01T09:54:50.204Z,3.37
2018-12-01T09:56:57.191Z,3.80
2018-12-01T09:59:02.266Z,4.13
2018-12-01T10:01:07.632Z,3.57
2018-12-01T10:03:13.074Z,4.33
2018-12-01T10:05:22.219Z,3.03
2018-12-01T10:07:27.265Z,4.00
2018-12-01T10:09:32.389Z,3.90
2018-12-01T10:11:37.515Z,3.30
2018-12-01T10:13:42.362Z,3.03
2018-12-01T10:15:47.389Z,2.77
2018-12-01T10:17:53.449Z,3.20
2018-12-01T10:19:58.852Z,3.30
2018-12-01T10:22:04.246Z,4.10
2018-12-01T10:24:09.859Z,2.70
2018-12-01T10:26:15.015Z,3.70
2018-12-01T10:28:21.371Z,2.80
2018-12-01T10:30:27.020Z,2.80
2018-12-01T10:32:32.323Z,2.80
2018-12-01T10:34:37.491Z,2.90
2018-12-01T10:36:43.022Z,2.80
2018-12-01T10:38:49.394Z,3.27
2018-12-01T10:40:55.077Z,3.00
2018-12-01T10:43:00.606Z,3.63
2018-12-01T10:45:10.207Z,2.20
2018-12-01T10:47:15.770Z,3.20
2018-12-01T10:49:24.710Z,2.70
2018-12-01T10:51:31.062Z,3.73
2018-12-01T10:53:36.904Z,2.50
2018-12-01T10:55:42.310Z,2.80
2018-12-01T10:57:48.011Z,2.53
2018-12-01T10:59:53.668Z,2.33
2018-12-01T11:02:04.001Z,2.33
2018-12-01T11:04:14.147Z,3.07
2018-12-01T11:06:20.906Z,2.40
2018-12-01T11:08:26.139Z,2.77
2018-12-01T11:10:32.105Z,2.17
2018-12-01T11:12:37.282Z,1.90
2018-12-01T11:14:42.612Z,2.37
2018-12-01T11:16:47.697Z,2.77
2018-12-01T11:18:52.946Z,2.73
2018-12-01T11:20:59.711Z,3.13
2018-12-01T11:23:05.163Z,2.80
2018-12-01T11:25:12.125Z,8.87
2018-12-01T11:27:24.299Z,3.20
2018-12-01T11:29:40.335Z,5.23
2018-12-01T11:31:47.474Z,3.03
2018-12-01T11:33:52.687Z,2.57
2018-12-01T11:35:57.875Z,2.90
2018-12-01T11:38:03.640Z,3.30
2018-12-01T11:40:18.322Z,2.13
2018-12-01T11:42:24.522Z,2.03
2018-12-01T11:44:30.829Z,2.30
2018-12-01T11:46:36.436Z,2.30
2018-12-01T11:48:41.911Z,2.20
2018-12-01T11:50:47.858Z,2.30
2018-12-01T11:52:53.115Z,2.37
2018-12-01T11:54:59.275Z,2.03
2018-12-01T11:57:06.450Z,2.40
2018-12-01T11:59:12.152Z,2.70
2018-12-01T12:01:17.481Z,2.53
2018-12-01T12:03:22.900Z,2.20
2018-12-01T12:05:29.771Z,2.53
2018-12-01T12:07:51.391Z,1.80
2018-12-01T12:09:56.623Z,1.80
2018-12-01T12:12:02.779Z,1.73
2018-12-01T12:14:09.304Z,1.80
2018-12-01T12:16:31.826Z,1.50
2018-12-01T12:18:37.835Z,1.50
2018-12-01T12:20:43.932Z,1.80
2018-12-01T12:22:49.339Z,1.10
2018-12-01T12:24:55.464Z,1.30
2018-12-01T12:27:01.445Z,1.60
2018-12-01T12:29:06.694Z,1.73
2018-12-01T12:31:14.944Z,1.60
2018-12-01T12:33:20.309Z,1.80
2018-12-01T12:35:25.844Z,1.57
2018-12-01T12:37:31.079Z,2.30
2018-12-01T12:39:36.877Z,1.57
2018-12-01T12:41:42.971Z,2.80
2018-12-01T12:43:48.947Z,1.73
2018-12-01T12:45:55.575Z,1.50
2018-12-01T12:48:01.007Z,1.70
2018-12-01T12:50:10.733Z,1.57
2018-12-01T12:52:17.748Z,1.63
2018-12-01T12:54:24.011Z,1.30
2018-12-01T12:56:32.808Z,2.00
2018-12-01T12:58:39.126Z,2.00
2018-12-01T13:00:44.782Z,1.90
2018-12-01T13:03:10.355Z,2.03
2018-12-01T13:05:23.577Z,2.33
2018-12-01T13:07:29.836Z,1.67
2018-12-01T13:09:35.016Z,1.53
2018-12-01T13:11:40.571Z,1.60
2018-12-01T13:13:45.866Z,1.23
2018-12-01T13:15:51.137Z,2.20
2018-12-01T13:18:06.606Z,2.00
2018-12-01T13:20:21.148Z,1.83
2018-12-01T13:22:26.468Z,1.83
2018-12-01T13:24:31.661Z,1.53
2018-12-01T13:26:37.138Z,1.70
2018-12-01T13:28:42.490Z,1.27
2018-12-01T13:30:51.719Z,1.23
2018-12-01T13:32:58.462Z,2.10
2018-12-01T13:35:03.487Z,1.50
2018-12-01T13:37:08.688Z,1.83
2018-12-01T13:39:13.856Z,2.17
2018-12-01T13:41:18.930Z,1.80
2018-12-01T13:43:23.925Z,1.60
2018-12-01T13:45:28.948Z,1.90
2018-12-01T13:47:34.457Z,1.67
2018-12-01T13:49:39.205Z,1.80
2018-12-01T13:51:45.247Z,1.37
2018-12-01T13:53:50.966Z,1.20
2018-12-01T13:55:55.986Z,1.60
2018-12-01T13:58:00.802Z,1.40
2018-12-01T14:00:14.774Z,1.97
2018-12-01T14:02:19.664Z,1.60
2018-12-01T14:04:25.321Z,1.23
2018-12-01T14:06:30.825Z,1.70
2018-12-01T14:08:36.496Z,1.57
2018-12-01T14:10:45.739Z,1.90
2018-12-01T14:12:53.784Z,2.20
2018-12-01T14:14:58.835Z,1.73
2018-12-01T14:17:05.248Z,1.37
2018-12-01T14:19:11.618Z,1.47
2018-12-01T14:21:16.521Z,3.20
2018-12-01T14:23:21.935Z,2.13
2018-12-01T14:25:26.214Z,4.83
2018-12-01T14:27:30.999Z,2.50
2018-12-01T14:29:35.873Z,1.17
2018-12-01T14:31:41.573Z,1.80
2018-12-01T14:33:46.484Z,1.30
2018-12-01T14:35:52.089Z,1.50
2018-12-01T14:38:06.389Z,1.40
2018-12-01T14:40:12.944Z,1.50
2018-12-01T14:42:18.760Z,1.10
2018-12-01T14:44:23.549Z,1.50
2018-12-01T14:46:28.341Z,1.43
2018-12-01T14:48:33.882Z,1.33
2018-12-01T14:50:39.701Z,1.43
2018-12-01T14:52:45.334Z,1.10
2018-12-01T14:54:51.808Z,1.53
2018-12-01T14:56:57.527Z,1.60
2018-12-01T14:59:03.288Z,1.43
2018-12-01T15:01:08.918Z,1.50
2018-12-01T15:03:14.573Z,1.57
2018-12-01T15:05:19.534Z,1.70
2018-12-01T15:07:24.417Z,2.03
2018-12-01T15:09:29.233Z,1.60
2018-12-01T15:11:34.270Z,1.30
2018-12-01T15:13:38.972Z,1.93
2018-12-01T15:15:44.679Z,1.50
2018-12-01T15:17:49.502Z,1.63
2018-12-01T15:19:54.523Z,1.40
2018-12-01T15:21:59.479Z,1.83
2018-12-01T15:24:06.457Z,1.90
2018-12-01T15:26:11.248Z,1.87
2018-12-01T15:28:16.322Z,1.87
2018-12-01T15:30:24.633Z,2.10
2018-12-01T15:32:29.771Z,2.20
2018-12-01T15:34:35.791Z,2.33
2018-12-01T15:36:40.581Z,2.30
2018-12-01T15:38:46.552Z,1.70
2018-12-01T15:40:53.840Z,1.73
2018-12-01T15:42:59.822Z,2.87
2018-12-01T15:45:05.328Z,2.73
2018-12-01T15:47:10.824Z,2.50
2018-12-01T15:49:15.915Z,2.17
2018-12-01T15:51:20.873Z,1.77
2018-12-01T15:53:26.145Z,2.30
2018-12-01T15:55:31.113Z,1.93
2018-12-01T15:57:36.184Z,1.63
2018-12-01T15:59:42.163Z,1.93
2018-12-01T16:01:47.713Z,1.67
2018-12-01T16:03:56.441Z,1.37
2018-12-01T16:06:01.702Z,1.20
2018-12-01T16:08:08.273Z,1.73
2018-12-01T16:10:15.704Z,1.70
2018-12-01T16:12:20.962Z,1.33
2018-12-01T16:14:26.532Z,1.60
2018-12-01T16:16:31.406Z,2.40
2018-12-01T16:18:37.064Z,1.47
2018-12-01T16:20:41.954Z,1.63
2018-12-01T16:22:46.942Z,1.70
2018-12-01T16:24:52.060Z,1.70
2018-12-01T16:26:56.864Z,1.70
2018-12-01T16:29:01.998Z,1.63
2018-12-01T16:31:07.505Z,1.60
2018-12-01T16:33:18.744Z,1.90
2018-12-01T16:35:23.453Z,1.67
2018-12-01T16:37:28.498Z,2.43
2018-12-01T16:39:33.271Z,1.80
2018-12-01T16:41:39.185Z,3.00
2018-12-01T16:43:44.163Z,1.70
2018-12-01T16:45:51.741Z,2.70
2018-12-01T16:47:56.767Z,1.63
2018-12-01T16:50:03.348Z,1.80
2018-12-01T16:52:08.607Z,1.60
2018-12-01T16:54:13.495Z,1.70
2018-12-01T16:56:18.469Z,1.80
2018-12-01T16:58:23.439Z,2.00
2018-12-01T17:00:28.336Z,2.20
2018-12-01T17:02:33.297Z,2.00
2018-12-01T17:04:38.185Z,1.67
2018-12-01T17:06:42.933Z,1.83
2018-12-01T17:08:49.926Z,2.40
2018-12-01T17:10:55.664Z,2.13
2018-12-01T17:13:00.571Z,2.33
2018-12-01T17:15:06.809Z,2.00
2018-12-01T17:17:12.559Z,1.77
2018-12-01T17:19:17.444Z,1.70
2018-12-01T17:21:22.330Z,2.20
2018-12-01T17:23:27.140Z,1.90
2018-12-01T17:25:32.176Z,1.60
2018-12-01T17:27:37.125Z,1.87
2018-12-01T17:29:41.974Z,2.20
2018-12-01T17:31:47.019Z,2.00
2018-12-01T17:33:54.187Z,1.97
2018-12-01T17:35:59.806Z,1.93
2018-12-01T17:38:10.072Z,2.20
2018-12-01T17:40:30.983Z,2.10
2018-12-01T17:42:36.436Z,2.23
2018-12-01T17:44:41.275Z,1.60
2018-12-01T17:46:46.224Z,1.90
2018-12-01T17:48:51.070Z,2.17
2018-12-01T17:50:55.857Z,4.33
2018-12-01T17:53:00.822Z,1.97
2018-12-01T17:55:09.425Z,1.83
2018-12-01T17:57:14.589Z,2.20
2018-12-01T17:59:19.604Z,1.93
2018-12-01T18:01:24.631Z,2.37
2018-12-01T18:03:29.662Z,1.63
2018-12-01T18:05:40.035Z,1.60
2018-12-01T18:07:44.868Z,2.27
2018-12-01T18:09:49.662Z,1.90
2018-12-01T18:11:55.729Z,1.90
2018-12-01T18:16:15.920Z,2.87
2018-12-01T18:18:21.358Z,1.80
2018-12-01T18:20:26.651Z,1.87
2018-12-01T18:22:31.770Z,1.90
2018-12-01T18:24:37.063Z,2.50
2018-12-01T18:26:43.497Z,1.60
2018-12-01T18:28:51.655Z,1.97
2018-12-01T18:30:57.473Z,2.40
2018-12-01T18:33:08.439Z,2.33
2018-12-01T18:35:14.122Z,1.83
2018-12-01T18:37:18.187Z,1.93
2018-12-01T18:39:24.047Z,4.83
2018-12-01T18:41:28.889Z,1.83
2018-12-01T18:43:34.503Z,1.50
2018-12-01T18:45:48.603Z,1.77
2018-12-01T18:47:53.728Z,1.83
2018-12-01T18:49:58.754Z,2.00
2018-12-01T18:52:04.580Z,1.83
2018-12-01T18:54:09.707Z,2.23
2018-12-01T18:56:14.552Z,2.30
2018-12-01T18:58:19.465Z,2.17
2018-12-01T19:00:32.776Z,2.53
2018-12-01T19:02:37.510Z,3.03
2018-12-01T19:04:42.494Z,2.30
2018-12-01T19:06:47.777Z,2.60
2018-12-01T19:08:52.765Z,1.80
2018-12-01T19:10:57.768Z,2.33
2018-12-01T19:13:03.026Z,2.33
2018-12-01T19:15:12.370Z,2.27
2018-12-01T19:17:17.325Z,1.77
2018-12-01T19:19:22.219Z,1.67
2018-12-01T19:21:27.113Z,2.17
2018-12-01T19:23:32.189Z,1.80
2018-12-01T19:25:37.814Z,2.37
2018-12-01T19:27:42.718Z,2.03
2018-12-01T19:29:47.595Z,1.80
2018-12-01T19:31:52.572Z,2.07
2018-12-01T19:33:57.712Z,2.00
2018-12-01T19:36:02.721Z,2.10
2018-12-01T19:38:10.160Z,2.30
2018-12-01T19:40:19.227Z,1.93
2018-12-01T19:42:24.377Z,2.13
2018-12-01T19:44:29.264Z,2.40
2018-12-01T19:46:34.275Z,1.97
2018-12-01T19:48:39.272Z,2.20
2018-12-01T19:50:44.221Z,1.70
2018-12-01T19:52:49.333Z,1.40
2018-12-01T19:54:54.152Z,1.70
2018-12-01T19:56:59.146Z,2.37
2018-12-01T19:59:04.283Z,2.00
2018-12-01T20:01:09.814Z,2.33
2018-12-01T20:03:18.923Z,2.00
2018-12-01T20:07:39.349Z,1.57
2018-12-01T20:09:44.344Z,2.20
2018-12-01T20:14:08.023Z,2.10
2018-12-01T20:16:26.756Z,1.60
2018-12-01T20:18:32.060Z,1.33
2018-12-01T20:20:37.327Z,1.70
2018-12-01T20:22:43.065Z,1.80
2018-12-01T20:24:47.821Z,1.57
2018-12-01T20:26:53.270Z,1.70
2018-12-01T20:29:05.794Z,2.07
2018-12-01T20:31:14.657Z,1.33
2018-12-01T20:33:20.570Z,1.40
2018-12-01T20:35:32.242Z,2.17
2018-12-01T20:37:37.685Z,2.17
2018-12-01T20:39:45.147Z,2.40
2018-12-01T20:41:50.823Z,1.10
2018-12-01T20:43:55.791Z,1.57
2018-12-01T20:46:01.393Z,1.40
2018-12-01T20:48:06.639Z,1.50
2018-12-01T20:50:15.054Z,1.60
2018-12-01T20:52:20.427Z,1.60
2018-12-01T20:54:36.466Z,2.00
2018-12-01T20:56:44.380Z,1.63
2018-12-01T20:58:49.666Z,2.13
2018-12-01T21:00:56.736Z,1.57
2018-12-01T21:03:01.934Z,1.70
2018-12-01T21:05:12.246Z,1.50
2018-12-01T21:07:19.517Z,3.37
2018-12-01T21:09:27.510Z,1.90
2018-12-01T21:11:33.935Z,1.83
2018-12-01T21:13:39.966Z,1.20
2018-12-01T21:15:45.351Z,1.90
2018-12-01T21:17:52.491Z,1.70
2018-12-01T21:19:57.635Z,2.40
2018-12-01T21:22:05.891Z,1.43
2018-12-01T21:24:13.058Z,1.20
2018-12-01T21:26:18.766Z,1.27
2018-12-01T21:28:28.161Z,1.53
2018-12-01T21:30:35.020Z,1.40
2018-12-01T21:32:40.394Z,1.10
2018-12-01T21:34:48.819Z,1.10
2018-12-01T21:36:55.842Z,1.40
2018-12-01T21:39:03.295Z,1.53
2018-12-01T21:41:09.020Z,1.33
2018-12-01T21:43:19.816Z,1.20
2018-12-01T21:45:25.366Z,1.40
2018-12-01T21:47:31.157Z,1.70
2018-12-01T21:49:39.395Z,1.00
2018-12-01T21:51:45.373Z,1.10
2018-12-01T21:53:50.454Z,1.10
2018-12-01T21:55:57.769Z,0.80
2018-12-01T21:58:05.880Z,1.10
2018-12-01T22:00:24.220Z,1.00
2018-12-01T22:02:29.804Z,0.90
2018-12-01T22:04:34.764Z,1.00
2018-12-01T22:06:39.757Z,0.97
2018-12-01T22:08:45.756Z,1.20
2018-12-01T22:10:57.892Z,1.00
2018-12-01T22:13:03.309Z,0.80
2018-12-01T22:15:13.562Z,0.90
2018-12-01T22:17:19.412Z,0.73
2018-12-01T22:19:24.703Z,1.10
2018-12-01T22:21:29.778Z,0.50
2018-12-01T22:23:36.028Z,1.00
2018-12-01T22:25:45.287Z,1.17
2018-12-01T22:27:50.733Z,1.00
2018-12-01T22:29:55.536Z,1.20
2018-12-01T22:32:01.506Z,0.77
2018-12-01T22:34:06.934Z,0.77
2018-12-01T22:36:11.820Z,0.90
2018-12-01T22:38:16.676Z,0.77
2018-12-01T22:40:23.662Z,0.80
2018-12-01T22:42:30.227Z,0.90
2018-12-01T22:46:59.816Z,0.90
2018-12-01T22:49:06.136Z,0.87
2018-12-01T22:51:11.044Z,1.10
2018-12-01T22:53:17.178Z,1.10
2018-12-01T22:55:26.897Z,1.20
2018-12-01T22:57:32.680Z,0.97
2018-12-01T22:59:37.669Z,1.03
2018-12-01T23:01:42.570Z,0.90
2018-12-01T23:03:48.025Z,1.00
2018-12-01T23:05:53.087Z,1.00
2018-12-01T23:07:58.565Z,0.90
2018-12-01T23:10:05.570Z,0.73
2018-12-01T23:12:10.540Z,1.23
2018-12-01T23:14:15.510Z,0.70
2018-12-01T23:16:21.226Z,0.70
2018-12-01T23:18:27.200Z,0.70
2018-12-01T23:20:32.701Z,1.00
2018-12-01T23:22:37.466Z,0.80
2018-12-01T23:24:42.302Z,0.70
2018-12-01T23:26:47.177Z,0.90
2018-12-01T23:28:52.109Z,0.70
2018-12-01T23:30:57.514Z,0.73
2018-12-01T23:33:16.342Z,0.70
2018-12-01T23:35:21.163Z,0.70
2018-12-01T23:37:25.973Z,0.70
2018-12-01T23:39:30.987Z,0.80
2018-12-01T23:41:36.816Z,1.10
2018-12-01T23:43:43.042Z,0.70
2018-12-01T23:45:48.208Z,0.60
2018-12-01T23:47:53.052Z,0.67
2018-12-01T23:49:57.994Z,0.80
2018-12-01T23:52:02.809Z,1.00
2018-12-01T23:54:07.763Z,1.00
2018-12-01T23:56:12.721Z,0.70
2018-12-01T23:58:18.251Z,0.80
